THY1VE EHAM-EDDH
Flight info
| Callsign | THY1VE |
|---|---|
| Flight time | 0h 40m |
| Altitude | 35000 |
| Route | ANDIK4E ANDIK M105 RIBSO RIBSO3D |
| Aircraft | B737/M-VGDW/C |
Departure
| Time | 2026-05-01 14:08 |
|---|---|
| Airport | Amsterdam Airport Schiphol (EHAM) |
Arrival
| Time | 2026-05-01 14:48 |
|---|---|
| Airport | Hamburg Helmut Schmidt Airport (EDDH) |
| Time | Latitude | Longitude | Altitude | Speed | Heading |
|---|---|---|---|---|---|
| 2026-05-01 13:54 | 52.30994 | 4.77363 | -3 ft | 0 kts | 182° |
| 2026-05-01 13:58 | 52.30998 | 4.77363 | -3 ft | 0 kts | 182° |
| 2026-05-01 13:59 | 52.31007 | 4.77364 | -3 ft | 1 kts | 182° |
| 2026-05-01 13:59 | 52.31014 | 4.77364 | -3 ft | 0 kts | 182° |
| 2026-05-01 13:59 | 52.31023 | 4.77365 | -3 ft | 2 kts | 182° |
| 2026-05-01 13:59 | 52.31031 | 4.77365 | -3 ft | 1 kts | 182° |
| 2026-05-01 14:00 | 52.31039 | 4.77366 | -3 ft | 1 kts | 182° |
| 2026-05-01 14:00 | 52.31047 | 4.77367 | -3 ft | 1 kts | 182° |
| 2026-05-01 14:00 | 52.31055 | 4.77367 | -3 ft | 1 kts | 182° |
| 2026-05-01 14:00 | 52.31063 | 4.77368 | -3 ft | 1 kts | 182° |
| 2026-05-01 14:01 | 52.31067 | 4.77368 | -3 ft | 0 kts | 182° |
| 2026-05-01 14:03 | 52.31061 | 4.77369 | -3 ft | 1 kts | 169° |
| 2026-05-01 14:04 | 52.31058 | 4.77381 | -3 ft | 3 kts | 91° |
| 2026-05-01 14:04 | 52.31042 | 4.77525 | -3 ft | 23 kts | 114° |
| 2026-05-01 14:04 | 52.31129 | 4.77633 | -3 ft | 29 kts | 5° |
| 2026-05-01 14:04 | 52.31282 | 4.77643 | -3 ft | 33 kts | 4° |
| 2026-05-01 14:05 | 52.31549 | 4.77550 | -3 ft | 17 kts | 6° |
| 2026-05-01 14:05 | 52.31589 | 4.77659 | -3 ft | 10 kts | 83° |
| 2026-05-01 14:05 | 52.31590 | 4.77690 | -3 ft | 3 kts | 87° |
| 2026-05-01 14:05 | 52.31590 | 4.77700 | -3 ft | 0 kts | 87° |
| 2026-05-01 14:06 | 52.31596 | 4.77864 | 0 ft | 29 kts | 87° |
| 2026-05-01 14:06 | 52.31558 | 4.77961 | 2 ft | 0 kts | 175° |
| 2026-05-01 14:07 | 52.31408 | 4.77951 | -1 ft | 58 kts | 183° |
| 2026-05-01 14:07 | 52.30743 | 4.77893 | -6 ft | 131 kts | 182° |
| 2026-05-01 14:07 | 52.29717 | 4.77790 | 503 ft | 150 kts | 182° |
| 2026-05-01 14:08 | 52.27733 | 4.77543 | 2378 ft | 149 kts | 169° |
| 2026-05-01 14:08 | 52.26735 | 4.78378 | 2889 ft | 176 kts | 145° |
| 2026-05-01 14:08 | 52.25937 | 4.80122 | 3167 ft | 210 kts | 115° |
| 2026-05-01 14:08 | 52.25574 | 4.82509 | 3663 ft | 223 kts | 98° |
| 2026-05-01 14:09 | 52.25670 | 4.85123 | 4088 ft | 246 kts | 75° |
| 2026-05-01 14:09 | 52.26740 | 4.87492 | 4425 ft | 276 kts | 38° |
| 2026-05-01 14:09 | 52.28439 | 4.89003 | 5122 ft | 285 kts | 28° |
| 2026-05-01 14:09 | 52.30240 | 4.90459 | 5894 ft | 292 kts | 28° |
| 2026-05-01 14:10 | 52.32066 | 4.91933 | 6756 ft | 293 kts | 28° |
| 2026-05-01 14:10 | 52.33914 | 4.93433 | 7607 ft | 297 kts | 28° |
| 2026-05-01 14:10 | 52.35753 | 4.94942 | 8484 ft | 300 kts | 28° |
| 2026-05-01 14:10 | 52.37624 | 4.96488 | 9417 ft | 302 kts | 28° |
| 2026-05-01 14:11 | 52.39524 | 4.98063 | 10336 ft | 305 kts | 28° |
| 2026-05-01 14:11 | 52.43520 | 5.01410 | 11094 ft | 348 kts | 28° |
| 2026-05-01 14:11 | 52.45709 | 5.03247 | 11696 ft | 358 kts | 28° |
| 2026-05-01 14:12 | 52.47945 | 5.05123 | 12594 ft | 360 kts | 29° |
| 2026-05-01 14:12 | 52.50188 | 5.07005 | 13481 ft | 364 kts | 29° |
| 2026-05-01 14:12 | 52.52457 | 5.08917 | 14289 ft | 370 kts | 29° |
| 2026-05-01 14:12 | 52.54758 | 5.10859 | 15099 ft | 373 kts | 29° |
| 2026-05-01 14:13 | 52.57083 | 5.12823 | 15951 ft | 376 kts | 29° |
| 2026-05-01 14:13 | 52.58637 | 5.14138 | 16491 ft | 379 kts | 29° |
| 2026-05-01 14:13 | 52.61800 | 5.16815 | 17562 ft | 386 kts | 29° |
| 2026-05-01 14:13 | 52.64205 | 5.18854 | 18367 ft | 390 kts | 29° |
| 2026-05-01 14:14 | 52.66604 | 5.20889 | 19076 ft | 394 kts | 29° |
| 2026-05-01 14:14 | 52.69053 | 5.22970 | 19824 ft | 396 kts | 29° |
| 2026-05-01 14:14 | 52.71486 | 5.25157 | 20541 ft | 398 kts | 36° |
| 2026-05-01 14:14 | 52.73551 | 5.28198 | 21220 ft | 399 kts | 52° |
| 2026-05-01 14:15 | 52.75059 | 5.32047 | 21917 ft | 398 kts | 68° |
| 2026-05-01 14:15 | 52.76033 | 5.36256 | 22572 ft | 400 kts | 72° |
| 2026-05-01 14:15 | 52.76953 | 5.40614 | 23200 ft | 404 kts | 72° |
| 2026-05-01 14:15 | 52.77864 | 5.45015 | 23829 ft | 407 kts | 72° |
| 2026-05-01 14:16 | 52.78786 | 5.49461 | 24363 ft | 411 kts | 72° |
| 2026-05-01 14:16 | 52.79718 | 5.53915 | 24897 ft | 414 kts | 72° |
| 2026-05-01 14:16 | 52.80390 | 5.57104 | 25277 ft | 416 kts | 71° |
| 2026-05-01 14:16 | 52.81346 | 5.61613 | 25787 ft | 419 kts | 71° |
| 2026-05-01 14:17 | 52.82308 | 5.66136 | 26272 ft | 422 kts | 71° |
| 2026-05-01 14:17 | 52.83285 | 5.70724 | 26780 ft | 425 kts | 71° |
| 2026-05-01 14:17 | 52.84271 | 5.75359 | 27266 ft | 429 kts | 71° |
| 2026-05-01 14:17 | 52.85265 | 5.80040 | 27755 ft | 431 kts | 71° |
| 2026-05-01 14:18 | 52.86262 | 5.84752 | 28230 ft | 434 kts | 71° |
| 2026-05-01 14:18 | 52.87263 | 5.89484 | 28662 ft | 438 kts | 71° |
| 2026-05-01 14:18 | 52.88268 | 5.94253 | 29110 ft | 440 kts | 71° |
| 2026-05-01 14:18 | 52.89282 | 5.99078 | 29548 ft | 443 kts | 71° |
| 2026-05-01 14:19 | 52.90296 | 6.03909 | 29964 ft | 446 kts | 71° |
| 2026-05-01 14:19 | 52.91318 | 6.08795 | 30366 ft | 448 kts | 71° |
| 2026-05-01 14:19 | 52.92324 | 6.13614 | 30762 ft | 449 kts | 71° |
| 2026-05-01 14:19 | 52.93342 | 6.18503 | 31284 ft | 447 kts | 71° |
| 2026-05-01 14:20 | 52.94366 | 6.23438 | 31753 ft | 446 kts | 71° |
| 2026-05-01 14:20 | 52.96395 | 6.33241 | 32640 ft | 446 kts | 71° |
| 2026-05-01 14:20 | 52.97396 | 6.38096 | 33118 ft | 444 kts | 71° |
| 2026-05-01 14:21 | 52.98394 | 6.42948 | 33529 ft | 445 kts | 71° |
| 2026-05-01 14:21 | 52.99394 | 6.47822 | 33965 ft | 444 kts | 71° |
| 2026-05-01 14:21 | 53.00385 | 6.52668 | 34393 ft | 443 kts | 70° |
| 2026-05-01 14:22 | 53.02361 | 6.62355 | 35061 ft | 444 kts | 71° |
| 2026-05-01 14:22 | 53.03348 | 6.67217 | 35281 ft | 445 kts | 71° |
| 2026-05-01 14:22 | 53.05337 | 6.77041 | 35272 ft | 449 kts | 71° |
| 2026-05-01 14:23 | 53.07322 | 6.86897 | 35270 ft | 448 kts | 71° |
| 2026-05-01 14:23 | 53.09275 | 6.96648 | 35258 ft | 439 kts | 71° |
| 2026-05-01 14:24 | 53.11191 | 7.06253 | 35280 ft | 440 kts | 71° |
| 2026-05-01 14:24 | 53.13136 | 7.16048 | 35294 ft | 442 kts | 71° |
| 2026-05-01 14:25 | 53.15081 | 7.25988 | 35283 ft | 444 kts | 71° |
| 2026-05-01 14:25 | 53.16963 | 7.35702 | 35283 ft | 442 kts | 71° |
| 2026-05-01 14:26 | 53.17845 | 7.40246 | 35269 ft | 427 kts | 71° |
| 2026-05-01 14:26 | 53.19663 | 7.49582 | 35220 ft | 399 kts | 71° |
| 2026-05-01 14:26 | 53.20497 | 7.53874 | 35066 ft | 391 kts | 71° |
| 2026-05-01 14:27 | 53.21331 | 7.58183 | 34701 ft | 388 kts | 71° |
| 2026-05-01 14:27 | 53.22162 | 7.62483 | 34266 ft | 388 kts | 71° |
| 2026-05-01 14:27 | 53.22977 | 7.66696 | 33886 ft | 386 kts | 71° |
| 2026-05-01 14:28 | 53.24589 | 7.75050 | 32921 ft | 373 kts | 71° |
| 2026-05-01 14:28 | 53.25384 | 7.79178 | 32314 ft | 370 kts | 71° |
| 2026-05-01 14:28 | 53.26171 | 7.83272 | 31525 ft | 372 kts | 71° |
| 2026-05-01 14:28 | 53.26976 | 7.87473 | 30190 ft | 388 kts | 72° |
| 2026-05-01 14:29 | 53.27809 | 7.91826 | 28919 ft | 396 kts | 72° |
| 2026-05-01 14:29 | 53.28647 | 7.96225 | 27903 ft | 397 kts | 72° |
| 2026-05-01 14:30 | 53.31116 | 8.09227 | 26416 ft | 389 kts | 73° |
| 2026-05-01 14:30 | 53.31931 | 8.13538 | 25904 ft | 387 kts | 73° |
| 2026-05-01 14:30 | 53.32747 | 8.17807 | 25488 ft | 383 kts | 72° |
| 2026-05-01 14:31 | 53.34614 | 8.26059 | 24532 ft | 380 kts | 70° |
| 2026-05-01 14:31 | 53.35583 | 8.30148 | 24078 ft | 378 kts | 70° |
| 2026-05-01 14:31 | 53.36474 | 8.34304 | 23552 ft | 374 kts | 79° |
| 2026-05-01 14:31 | 53.37092 | 8.38523 | 23042 ft | 373 kts | 71° |
| 2026-05-01 14:32 | 53.38163 | 8.42468 | 22572 ft | 371 kts | 65° |
| 2026-05-01 14:32 | 53.39351 | 8.46313 | 22059 ft | 369 kts | 64° |
| 2026-05-01 14:32 | 53.40557 | 8.50105 | 21569 ft | 368 kts | 64° |
| 2026-05-01 14:32 | 53.41738 | 8.53784 | 21099 ft | 365 kts | 64° |
| 2026-05-01 14:33 | 53.42989 | 8.57667 | 20580 ft | 359 kts | 63° |
| 2026-05-01 14:33 | 53.44179 | 8.61345 | 19851 ft | 360 kts | 64° |
| 2026-05-01 14:33 | 53.45380 | 8.65058 | 19313 ft | 362 kts | 63° |
| 2026-05-01 14:33 | 53.46575 | 8.68745 | 18982 ft | 357 kts | 64° |
| 2026-05-01 14:34 | 53.47756 | 8.72388 | 18603 ft | 354 kts | 63° |
| 2026-05-01 14:34 | 53.48932 | 8.76013 | 18114 ft | 353 kts | 63° |
| 2026-05-01 14:34 | 53.50087 | 8.79574 | 17671 ft | 351 kts | 64° |
| 2026-05-01 14:34 | 53.51253 | 8.83166 | 17233 ft | 348 kts | 64° |
| 2026-05-01 14:35 | 53.52414 | 8.86738 | 16814 ft | 346 kts | 64° |
| 2026-05-01 14:35 | 53.53568 | 8.90287 | 16389 ft | 344 kts | 64° |
| 2026-05-01 14:35 | 53.54708 | 8.93785 | 15932 ft | 337 kts | 64° |
| 2026-05-01 14:35 | 53.55839 | 8.97240 | 15196 ft | 337 kts | 64° |
| 2026-05-01 14:36 | 53.56580 | 8.99500 | 14723 ft | 337 kts | 64° |
| 2026-05-01 14:36 | 53.57758 | 9.03068 | 14042 ft | 334 kts | 64° |
| 2026-05-01 14:36 | 53.58886 | 9.06462 | 13365 ft | 331 kts | 64° |
| 2026-05-01 14:36 | 53.60006 | 9.09813 | 12711 ft | 327 kts | 64° |
| 2026-05-01 14:37 | 53.61121 | 9.13142 | 12049 ft | 325 kts | 64° |
| 2026-05-01 14:37 | 53.62244 | 9.16483 | 11586 ft | 325 kts | 64° |
| 2026-05-01 14:37 | 53.63345 | 9.19759 | 11451 ft | 325 kts | 64° |
| 2026-05-01 14:37 | 53.64455 | 9.23060 | 11321 ft | 323 kts | 64° |
| 2026-05-01 14:38 | 53.65543 | 9.26288 | 11220 ft | 310 kts | 64° |
| 2026-05-01 14:38 | 53.66594 | 9.29383 | 10950 ft | 299 kts | 64° |
| 2026-05-01 14:38 | 53.67624 | 9.32404 | 10424 ft | 296 kts | 64° |
| 2026-05-01 14:38 | 53.68668 | 9.35467 | 9818 ft | 296 kts | 64° |
| 2026-05-01 14:39 | 53.69685 | 9.38463 | 9279 ft | 293 kts | 64° |
| 2026-05-01 14:39 | 53.70694 | 9.41450 | 8762 ft | 291 kts | 64° |
| 2026-05-01 14:39 | 53.71677 | 9.44377 | 8237 ft | 289 kts | 64° |
| 2026-05-01 14:39 | 53.72659 | 9.47323 | 7725 ft | 286 kts | 64° |
| 2026-05-01 14:40 | 53.73618 | 9.50216 | 7228 ft | 284 kts | 64° |
| 2026-05-01 14:40 | 53.74592 | 9.53174 | 6745 ft | 282 kts | 64° |
| 2026-05-01 14:40 | 53.75539 | 9.56056 | 6239 ft | 279 kts | 64° |
| 2026-05-01 14:40 | 53.76491 | 9.58966 | 5710 ft | 278 kts | 64° |
| 2026-05-01 14:41 | 53.77409 | 9.61769 | 5265 ft | 274 kts | 64° |
| 2026-05-01 14:41 | 53.78347 | 9.64627 | 4768 ft | 272 kts | 64° |
| 2026-05-01 14:41 | 53.79244 | 9.67356 | 4358 ft | 261 kts | 64° |
| 2026-05-01 14:41 | 53.80103 | 9.70005 | 3894 ft | 251 kts | 64° |
| 2026-05-01 14:42 | 53.80923 | 9.72560 | 3430 ft | 245 kts | 64° |
| 2026-05-01 14:42 | 53.81670 | 9.75113 | 3109 ft | 240 kts | 74° |
| 2026-05-01 14:42 | 53.81757 | 9.77828 | 3056 ft | 226 kts | 104° |
| 2026-05-01 14:42 | 53.81096 | 9.80092 | 3014 ft | 206 kts | 124° |
| 2026-05-01 14:43 | 53.80363 | 9.82061 | 2993 ft | 188 kts | 123° |
| 2026-05-01 14:43 | 53.79695 | 9.83833 | 2992 ft | 174 kts | 125° |
| 2026-05-01 14:43 | 53.78902 | 9.85391 | 2998 ft | 173 kts | 144° |
| 2026-05-01 14:43 | 53.77919 | 9.86526 | 2798 ft | 170 kts | 147° |
| 2026-05-01 14:44 | 53.76890 | 9.87563 | 2579 ft | 179 kts | 151° |
| 2026-05-01 14:44 | 53.74828 | 9.89362 | 2106 ft | 160 kts | 153° |
| 2026-05-01 14:44 | 53.73867 | 9.90226 | 2007 ft | 150 kts | 151° |
| 2026-05-01 14:45 | 53.72862 | 9.91049 | 1749 ft | 156 kts | 156° |
| 2026-05-01 14:45 | 53.70936 | 9.92785 | 1294 ft | 144 kts | 153° |
| 2026-05-01 14:45 | 53.70076 | 9.93508 | 1122 ft | 135 kts | 152° |
| 2026-05-01 14:46 | 53.69260 | 9.94204 | 946 ft | 129 kts | 152° |
| 2026-05-01 14:46 | 53.67626 | 9.95623 | 594 ft | 137 kts | 152° |
| 2026-05-01 14:46 | 53.66785 | 9.96357 | 407 ft | 131 kts | 152° |
| 2026-05-01 14:47 | 53.65991 | 9.97061 | 235 ft | 127 kts | 152° |
| 2026-05-01 14:47 | 53.65218 | 9.97730 | 87 ft | 125 kts | 153° |
| 2026-05-01 14:47 | 53.64477 | 9.98357 | 53 ft | 110 kts | 153° |
| 2026-05-01 14:48 | 53.63372 | 9.99303 | 49 ft | 54 kts | 153° |
| 2026-05-01 14:48 | 53.63211 | 9.99480 | 47 ft | 10 kts | 114° |
| 2026-05-01 14:48 | 53.63266 | 9.99673 | 48 ft | 8 kts | 73° |
| 2026-05-01 14:49 | 53.63317 | 9.99843 | 49 ft | 16 kts | 47° |
| 2026-05-01 14:49 | 53.63426 | 10.00177 | 47 ft | 13 kts | 100° |